Ana Sayfa
METAR-TAF:

METAR-TAF

Havaalanları :

Banjarmasin, Endonezya

Enlem: 03-26-32S, Boylam: 114-45-45E, yükseklik: 20 m

Güncel hava durumu gözlemi

Rapor saat 13:00 UTC de 8 saat ve 49 dakika önce yapıldı.
Rüzgar doğu/güneydoğudan 5 kt
Sıcaklık 26°C
Nem 94%
Basınç 1009 hPa
Görüş mesafesi: 9000 m
1800 ft yükseklikte parçalı bulutlu

METAR: WAOO 241300Z 11005KT 9000 SCT018 26/25 Q1009

Saat: 04:49 (21:49 UTC)

Tahmin

Rapor saat 17:00 UTC de 4 saat ve 49 dakika önce yapıldı.
Ayın 24'si saat 18 UTC'den ayın 25'si saat 18 UTC'ye kadar geçerli Tahmin
Rüzgar güney/güneydoğudan 7 kt
Görüş mesafesi: 9000 m
1800 ft yükseklikte parçalı bulutlu
Olasılık 40% :
Geçici
ayın 25'si saat 06 UTC'den ayın 25'si saat 10 UTC'ye kadar
Görüş mesafesi: 6000 m
yağmur

TAF: WAOO 241700Z 2418/2518 16007KT 9000 SCT018 PROB40 TEMPO 2506/2510 6000 RA

4.000'den fazla havaalanı için hava durumu gözlemleri ve tahminleri (METAR ve TAF raporları).

Kullanılabilir istasyonlar harita üzerinde sarı ve kırmızı noktalarla gösterilir.

İstasyonun adını görmek için fareyi noktanın üzerinde gezdirin.

Sonrasında hava gözlem ve tahminlerini görmek için tıklayın.

Haritayı değiştirmek için: yaklaştırmak için siyah artı işaretli yeşil düğmeye ve uzaklaştırmak için de eksi işaretli düğmeye hızla tıklayın; bitişik haritalar için yeşil okları kullanın.


METAR-TAF: